createdAt,value
2018-12-19T00:02:21.804Z,99.60
2018-12-19T00:04:50.263Z,99.70
2018-12-19T00:07:18.695Z,99.30
2018-12-19T00:09:47.147Z,99.10
2018-12-19T00:12:15.565Z,98.90
2018-12-19T00:14:44.007Z,98.70
2018-12-19T00:17:12.432Z,98.10
2018-12-19T00:19:40.868Z,97.70
2018-12-19T00:22:09.292Z,97.20
2018-12-19T00:24:37.723Z,97.10
2018-12-19T00:27:06.148Z,96.90
2018-12-19T00:29:34.633Z,96.50
2018-12-19T00:32:03.058Z,96.50
2018-12-19T00:34:31.518Z,96.30
2018-12-19T00:36:59.937Z,95.90
2018-12-19T00:39:28.359Z,95.80
2018-12-19T00:41:56.767Z,95.50
2018-12-19T00:44:25.217Z,95.40
2018-12-19T00:46:53.628Z,95.00
2018-12-19T00:49:22.064Z,95.10
2018-12-19T00:51:50.489Z,95.30
2018-12-19T00:54:18.920Z,95.40
2018-12-19T00:56:47.352Z,95.00
2018-12-19T00:59:15.827Z,94.70
2018-12-19T01:01:44.240Z,94.00
2018-12-19T01:04:12.659Z,94.30
2018-12-19T01:06:41.064Z,94.00
2018-12-19T01:09:15.777Z,93.90
2018-12-19T01:11:39.942Z,94.20
2018-12-19T01:14:08.374Z,93.90
2018-12-19T01:16:36.802Z,93.70
2018-12-19T01:19:05.254Z,93.60
2018-12-19T01:21:33.680Z,93.70
2018-12-19T01:24:02.108Z,93.50
2018-12-19T01:26:30.528Z,93.60
2018-12-19T01:28:58.963Z,93.40
2018-12-19T01:31:27.388Z,93.00
2018-12-19T01:33:55.860Z,92.20
2018-12-19T01:36:24.283Z,92.20
2018-12-19T01:38:52.727Z,91.90
2018-12-19T01:41:21.179Z,91.70
2018-12-19T01:43:49.619Z,91.80
2018-12-19T01:46:18.055Z,91.20
2018-12-19T01:48:46.520Z,91.30
2018-12-19T01:51:15.049Z,91.50
2018-12-19T01:53:43.607Z,91.60
2018-12-19T01:56:12.022Z,91.70
2018-12-19T01:58:40.452Z,91.60
2018-12-19T02:01:08.937Z,91.50
2018-12-19T02:03:37.379Z,91.60
2018-12-19T02:06:05.803Z,91.60
2018-12-19T02:08:34.248Z,91.30
2018-12-19T02:11:02.755Z,91.20
2018-12-19T02:13:31.193Z,91.40
2018-12-19T02:15:59.644Z,91.50
2018-12-19T02:18:28.099Z,91.40
2018-12-19T02:20:56.504Z,91.50
2018-12-19T02:23:25.192Z,91.40
2018-12-19T02:25:53.612Z,91.60
2018-12-19T02:28:22.028Z,91.80
2018-12-19T02:30:50.578Z,92.00
2018-12-19T02:33:18.989Z,92.30
2018-12-19T02:35:47.459Z,92.50
2018-12-19T02:38:16.699Z,92.20
2018-12-19T02:40:45.143Z,91.80
2018-12-19T02:43:13.597Z,92.00
2018-12-19T02:45:42.039Z,92.10
2018-12-19T02:48:10.467Z,92.10
2018-12-19T02:50:38.925Z,92.30
2018-12-19T02:53:07.348Z,92.40
2018-12-19T02:55:35.791Z,93.10
2018-12-19T02:58:04.251Z,92.30
2018-12-19T03:00:32.688Z,92.60
2018-12-19T03:03:01.109Z,92.10
2018-12-19T03:05:29.552Z,91.90
2018-12-19T03:07:57.966Z,92.30
2018-12-19T03:10:26.412Z,91.90
2018-12-19T03:12:54.879Z,92.00
2018-12-19T03:15:23.427Z,92.00
2018-12-19T03:17:51.881Z,91.90
2018-12-19T03:20:20.372Z,91.90
2018-12-19T03:22:48.828Z,91.60
2018-12-19T03:25:17.255Z,91.70
2018-12-19T03:27:45.719Z,91.70
2018-12-19T03:30:14.265Z,91.90
2018-12-19T03:32:42.681Z,91.40
2018-12-19T03:35:11.131Z,91.40
2018-12-19T03:37:39.557Z,91.30
2018-12-19T03:40:08.280Z,91.10
2018-12-19T03:42:36.695Z,90.40
2018-12-19T03:45:05.776Z,91.10
2018-12-19T03:47:34.197Z,91.10
2018-12-19T03:50:02.767Z,90.80
2018-12-19T03:52:31.188Z,90.20
2018-12-19T03:54:59.652Z,90.60
2018-12-19T03:57:28.388Z,90.70
2018-12-19T03:59:56.820Z,90.60
2018-12-19T04:02:25.234Z,90.30
2018-12-19T04:04:53.659Z,89.30
2018-12-19T04:07:22.090Z,89.50
2018-12-19T04:09:57.425Z,87.90
2018-12-19T04:12:20.971Z,88.40
2018-12-19T04:14:49.439Z,87.90
2018-12-19T04:17:17.859Z,87.30
2018-12-19T04:19:46.312Z,87.00
2018-12-19T04:22:14.739Z,87.80
2018-12-19T04:24:43.180Z,87.70
2018-12-19T04:27:11.610Z,88.00
2018-12-19T04:29:40.260Z,86.50
2018-12-19T04:32:08.679Z,88.40
2018-12-19T04:34:37.232Z,89.50
2018-12-19T04:37:05.671Z,89.10
2018-12-19T04:39:34.104Z,89.10
2018-12-19T04:42:02.523Z,88.70
2018-12-19T04:44:30.980Z,89.10
2018-12-19T04:46:59.547Z,89.40
2018-12-19T04:49:27.983Z,89.70
2018-12-19T04:51:56.468Z,89.50
2018-12-19T04:54:24.960Z,88.90
2018-12-19T04:56:53.407Z,88.70
2018-12-19T04:59:21.848Z,88.40
2018-12-19T05:01:50.294Z,87.10
2018-12-19T05:04:18.725Z,87.20
2018-12-19T05:06:47.191Z,86.40
2018-12-19T05:09:15.624Z,85.00
2018-12-19T05:11:44.108Z,85.70
2018-12-19T05:14:12.536Z,86.80
2018-12-19T05:16:41.072Z,85.20
2018-12-19T05:19:09.557Z,85.00
2018-12-19T05:21:38.012Z,85.10
2018-12-19T05:24:06.432Z,83.80
2018-12-19T05:26:34.908Z,83.80
2018-12-19T05:29:03.375Z,84.70
2018-12-19T05:31:31.924Z,83.80
2018-12-19T05:34:00.368Z,83.80
2018-12-19T05:36:28.827Z,84.10
2018-12-19T05:38:57.272Z,83.80
2018-12-19T05:41:26.023Z,83.90
2018-12-19T05:43:54.471Z,84.10
2018-12-19T05:46:22.921Z,83.90
2018-12-19T05:48:51.346Z,83.90
2018-12-19T05:51:19.779Z,82.50
2018-12-19T05:53:48.201Z,83.50
2018-12-19T05:56:16.695Z,82.20
2018-12-19T05:58:45.124Z,82.60
2018-12-19T06:01:13.688Z,82.40
2018-12-19T06:03:42.240Z,81.90
2018-12-19T06:06:10.685Z,81.50
2018-12-19T06:08:39.120Z,81.60
2018-12-19T06:11:07.587Z,82.50
2018-12-19T06:13:36.013Z,81.20
2018-12-19T06:16:04.472Z,80.90
2018-12-19T06:18:32.895Z,81.50
2018-12-19T06:21:01.336Z,82.40
2018-12-19T06:23:29.767Z,81.90
2018-12-19T06:25:58.307Z,82.70
2018-12-19T06:28:26.720Z,82.40
2018-12-19T06:30:55.159Z,82.30
2018-12-19T06:33:23.611Z,83.40
2018-12-19T06:35:52.089Z,84.10
2018-12-19T06:38:20.515Z,86.20
2018-12-19T06:40:48.983Z,87.80
2018-12-19T06:43:17.423Z,88.60
2018-12-19T06:45:45.885Z,87.60
2018-12-19T06:48:14.336Z,90.60
2018-12-19T06:50:42.820Z,91.10
2018-12-19T06:53:11.283Z,91.60
2018-12-19T06:55:39.752Z,91.80
2018-12-19T06:58:08.168Z,91.70
2018-12-19T07:00:36.902Z,92.40
2018-12-19T07:03:05.307Z,92.30
2018-12-19T07:05:33.746Z,92.00
2018-12-19T07:08:02.201Z,92.20
2018-12-19T07:10:30.647Z,92.60
2018-12-19T07:12:59.078Z,92.50
2018-12-19T07:15:27.508Z,92.50
2018-12-19T07:17:56.085Z,93.10
2018-12-19T07:20:24.505Z,93.40
2018-12-19T07:22:53.039Z,93.40
2018-12-19T07:25:21.459Z,93.80
2018-12-19T07:27:49.906Z,93.30
2018-12-19T07:30:18.371Z,93.80
2018-12-19T07:32:46.851Z,94.00
2018-12-19T07:35:15.933Z,94.20
2018-12-19T07:37:44.390Z,94.00
2018-12-19T07:40:12.815Z,94.20
2018-12-19T07:42:41.277Z,94.00
2018-12-19T07:45:09.716Z,94.70
2018-12-19T07:47:38.172Z,93.90
2018-12-19T07:50:06.749Z,93.60
2018-12-19T07:52:35.233Z,93.70
2018-12-19T07:55:03.811Z,94.00
2018-12-19T07:57:32.571Z,94.00
2018-12-19T08:00:01.335Z,93.70
2018-12-19T08:02:30.139Z,93.80
2018-12-19T08:04:58.910Z,93.90
2018-12-19T08:07:27.542Z,94.10
2018-12-19T08:09:56.120Z,94.10
2018-12-19T08:12:24.787Z,94.30
2018-12-19T08:14:57.682Z,94.40
2018-12-19T08:17:26.156Z,95.00
2018-12-19T08:19:54.618Z,95.00
2018-12-19T08:22:23.073Z,94.90
2018-12-19T08:24:51.507Z,95.20
2018-12-19T08:27:19.942Z,95.30
2018-12-19T08:29:48.429Z,95.90
2018-12-19T08:32:16.917Z,95.70
2018-12-19T08:34:45.368Z,95.30
2018-12-19T08:37:13.871Z,95.70
2018-12-19T08:39:42.324Z,96.00
2018-12-19T08:42:10.783Z,95.70
2018-12-19T08:44:39.201Z,95.80
2018-12-19T08:47:07.671Z,95.00
2018-12-19T08:49:36.110Z,95.30
2018-12-19T08:52:04.547Z,95.60
2018-12-19T08:54:32.971Z,95.60
2018-12-19T08:57:01.429Z,96.00
2018-12-19T08:59:29.877Z,96.30
2018-12-19T09:01:58.336Z,97.10
2018-12-19T09:04:26.773Z,96.70
2018-12-19T09:06:55.216Z,97.30
2018-12-19T09:09:23.656Z,97.30
2018-12-19T09:11:52.110Z,97.50
2018-12-19T09:14:20.541Z,97.50
2018-12-19T09:16:49.000Z,97.40
2018-12-19T09:19:17.436Z,97.40
2018-12-19T09:21:45.918Z,97.40
2018-12-19T09:24:14.357Z,97.40
2018-12-19T09:26:42.812Z,97.50
2018-12-19T09:29:11.260Z,97.40
2018-12-19T09:31:42.087Z,97.60
2018-12-19T09:34:10.523Z,97.50
2018-12-19T09:36:39.020Z,97.60
2018-12-19T09:39:07.441Z,97.60
2018-12-19T09:41:35.915Z,97.80
2018-12-19T09:44:04.602Z,98.10
2018-12-19T09:46:33.062Z,98.20
2018-12-19T09:49:01.496Z,97.60
2018-12-19T09:51:29.963Z,97.00
2018-12-19T09:53:58.394Z,97.60
2018-12-19T09:56:26.854Z,97.50
2018-12-19T09:58:55.284Z,97.70
2018-12-19T10:01:23.712Z,97.70
2018-12-19T10:03:52.155Z,97.50
2018-12-19T10:06:20.580Z,97.70
2018-12-19T10:08:49.036Z,97.70
2018-12-19T10:11:18.795Z,97.50
2018-12-19T10:13:47.526Z,97.50
2018-12-19T10:16:16.012Z,97.10
2018-12-19T10:18:44.455Z,97.60
2018-12-19T10:21:12.875Z,97.70
2018-12-19T10:23:41.332Z,97.80
2018-12-19T10:26:12.645Z,97.40
2018-12-19T10:28:41.201Z,97.70
2018-12-19T10:31:09.687Z,97.80
2018-12-19T10:33:38.176Z,98.00
2018-12-19T10:36:06.615Z,98.30
2018-12-19T10:38:35.063Z,98.40
2018-12-19T10:41:03.519Z,98.60
2018-12-19T10:43:31.956Z,98.40
2018-12-19T10:46:00.423Z,98.30
2018-12-19T10:48:28.883Z,98.30
2018-12-19T10:50:57.309Z,98.20
2018-12-19T10:53:25.848Z,98.30
2018-12-19T10:55:54.293Z,98.10
2018-12-19T10:58:22.762Z,98.40
2018-12-19T11:01:03.596Z,98.60
2018-12-19T11:03:32.083Z,98.70
2018-12-19T11:06:00.537Z,99.00
2018-12-19T11:08:29.015Z,98.90
2018-12-19T11:10:57.548Z,98.60
2018-12-19T11:13:26.007Z,98.40
2018-12-19T11:15:54.564Z,98.80
2018-12-19T11:18:23.096Z,98.80
2018-12-19T11:20:51.764Z,99.00
2018-12-19T11:23:20.215Z,99.00
2018-12-19T11:25:48.695Z,99.40
2018-12-19T11:28:17.151Z,99.30
2018-12-19T11:30:45.780Z,99.40
2018-12-19T11:33:14.225Z,99.40
2018-12-19T11:35:42.699Z,99.30
2018-12-19T11:38:11.149Z,99.40
2018-12-19T11:40:39.583Z,99.30
2018-12-19T11:43:08.033Z,99.20
2018-12-19T11:45:36.472Z,99.20
2018-12-19T11:48:04.925Z,99.40
2018-12-19T11:50:33.367Z,99.50
2018-12-19T11:53:01.849Z,99.50
2018-12-19T11:55:30.287Z,99.30
2018-12-19T11:57:58.737Z,99.50
2018-12-19T12:00:27.176Z,99.60
2018-12-19T12:02:55.632Z,99.40
2018-12-19T12:05:24.063Z,99.50
2018-12-19T12:07:52.515Z,99.70
2018-12-19T12:10:20.955Z,99.90
2018-12-19T12:12:49.420Z,99.70
2018-12-19T12:15:17.871Z,99.60
2018-12-19T12:17:46.336Z,99.60
2018-12-19T12:20:14.804Z,99.50
2018-12-19T12:22:43.407Z,99.60
2018-12-19T12:25:11.885Z,99.80
2018-12-19T12:27:40.478Z,99.90
2018-12-19T12:30:09.256Z,99.90
2018-12-19T12:32:37.714Z,99.90
2018-12-19T12:35:07.447Z,99.90
2018-12-19T12:37:35.915Z,99.90
2018-12-19T12:40:05.064Z,99.90
2018-12-19T12:42:33.565Z,99.90
2018-12-19T12:45:02.503Z,99.90
2018-12-19T12:47:31.232Z,99.90
2018-12-19T12:49:59.713Z,99.90
2018-12-19T12:52:28.164Z,99.90
2018-12-19T12:54:56.652Z,99.90
2018-12-19T12:57:25.103Z,99.90
2018-12-19T12:59:53.587Z,99.90
2018-12-19T13:02:22.040Z,99.90
2018-12-19T13:04:50.493Z,99.90
2018-12-19T13:07:18.927Z,99.90
2018-12-19T13:09:47.429Z,99.90
2018-12-19T13:12:15.873Z,99.90
2018-12-19T13:14:44.398Z,99.90
2018-12-19T13:17:12.972Z,99.90
2018-12-19T13:19:41.460Z,99.90
2018-12-19T13:22:09.918Z,99.90
2018-12-19T13:24:38.395Z,99.90
2018-12-19T13:27:06.880Z,99.90
2018-12-19T13:29:35.493Z,99.90
2018-12-19T13:32:04.164Z,99.90
2018-12-19T13:34:32.788Z,99.90
2018-12-19T13:37:01.281Z,99.90
2018-12-19T13:39:29.813Z,99.90
2018-12-19T13:41:58.296Z,99.90
2018-12-19T13:44:26.764Z,99.90
2018-12-19T13:46:55.197Z,99.90
2018-12-19T13:49:23.685Z,99.90
2018-12-19T13:51:52.177Z,99.90
2018-12-19T13:54:20.944Z,99.90
2018-12-19T13:56:49.451Z,99.90
2018-12-19T13:59:17.910Z,99.90
2018-12-19T14:01:46.366Z,99.90
2018-12-19T14:04:14.826Z,99.90
2018-12-19T14:06:43.276Z,99.90
2018-12-19T14:09:11.743Z,99.90
2018-12-19T14:11:40.185Z,99.90
2018-12-19T14:14:08.632Z,99.90
2018-12-19T14:16:37.076Z,99.90
2018-12-19T14:19:05.675Z,99.90
2018-12-19T14:21:34.128Z,99.90
2018-12-19T14:24:02.601Z,99.90
2018-12-19T14:26:31.063Z,99.90
2018-12-19T14:28:59.584Z,99.90
2018-12-19T14:31:28.026Z,99.90
2018-12-19T14:33:56.506Z,99.90
2018-12-19T14:36:25.015Z,99.90
2018-12-19T14:38:53.475Z,99.90
2018-12-19T14:41:21.936Z,99.90
2018-12-19T14:43:50.405Z,99.90
2018-12-19T14:46:18.850Z,99.90
2018-12-19T14:48:47.307Z,99.90
2018-12-19T14:51:16.905Z,99.90
2018-12-19T14:53:45.402Z,99.90
2018-12-19T14:56:13.865Z,99.90
2018-12-19T14:58:42.321Z,99.90
2018-12-19T15:01:10.772Z,99.90
2018-12-19T15:03:39.539Z,99.90
2018-12-19T15:06:08.145Z,99.90
2018-12-19T15:08:36.596Z,99.90
2018-12-19T15:11:05.124Z,99.90
2018-12-19T15:13:33.633Z,99.90
2018-12-19T15:16:02.773Z,99.90
2018-12-19T15:18:31.412Z,99.90
2018-12-19T15:21:00.019Z,99.90
2018-12-19T15:23:28.780Z,99.90
2018-12-19T15:25:57.231Z,99.90
2018-12-19T15:28:25.671Z,99.90
2018-12-19T15:30:54.132Z,99.90
2018-12-19T15:33:22.572Z,99.90
2018-12-19T15:35:51.619Z,99.90
2018-12-19T15:38:20.166Z,99.90
2018-12-19T15:40:48.972Z,99.90
2018-12-19T15:43:17.413Z,99.90
2018-12-19T15:45:45.952Z,99.90
2018-12-19T15:48:14.386Z,99.90
2018-12-19T15:50:42.872Z,99.90
2018-12-19T15:53:11.315Z,99.90
2018-12-19T15:55:39.821Z,99.90
2018-12-19T15:58:08.295Z,99.90
2018-12-19T16:00:36.755Z,99.90
2018-12-19T16:03:05.580Z,99.90
2018-12-19T16:05:34.064Z,99.90
2018-12-19T16:08:02.511Z,99.90
2018-12-19T16:10:30.995Z,99.90
2018-12-19T16:12:59.447Z,99.90
2018-12-19T16:15:27.939Z,99.90
2018-12-19T16:17:56.431Z,99.90
2018-12-19T16:20:24.888Z,99.90
2018-12-19T16:22:53.331Z,99.90
2018-12-19T16:25:21.886Z,99.90
2018-12-19T16:27:50.364Z,99.90
2018-12-19T16:30:19.393Z,99.90
2018-12-19T16:32:47.904Z,99.90
2018-12-19T16:35:16.393Z,99.90
2018-12-19T16:37:44.893Z,99.90
2018-12-19T16:40:13.516Z,99.90
2018-12-19T16:42:46.107Z,99.90
2018-12-19T16:45:12.770Z,99.90
2018-12-19T16:47:41.220Z,99.90
2018-12-19T16:50:09.693Z,99.90
2018-12-19T16:52:38.183Z,99.90
2018-12-19T16:55:06.647Z,99.90
2018-12-19T16:57:35.071Z,99.90
2018-12-19T17:00:03.912Z,99.90
2018-12-19T17:02:32.356Z,99.90
2018-12-19T17:05:00.835Z,99.90
2018-12-19T17:07:29.332Z,99.90
2018-12-19T17:09:57.874Z,99.90
2018-12-19T17:12:26.367Z,99.90
2018-12-19T17:14:54.911Z,99.90
2018-12-19T17:17:23.414Z,99.90
2018-12-19T17:19:51.874Z,99.90
2018-12-19T17:22:20.311Z,99.90
2018-12-19T17:24:48.771Z,99.90
2018-12-19T17:27:17.272Z,99.90
2018-12-19T17:29:45.744Z,99.90
2018-12-19T17:32:14.395Z,99.90
2018-12-19T17:34:42.950Z,99.90
2018-12-19T17:37:11.464Z,99.90
2018-12-19T17:39:39.940Z,99.90
2018-12-19T17:42:08.442Z,99.90
2018-12-19T17:44:36.912Z,99.90
2018-12-19T17:47:05.444Z,99.90
2018-12-19T17:49:33.944Z,99.90
2018-12-19T17:52:02.407Z,99.90
2018-12-19T17:54:30.890Z,99.90
2018-12-19T17:56:59.339Z,99.90
2018-12-19T17:59:27.863Z,99.90
2018-12-19T18:01:56.562Z,99.90
2018-12-19T18:04:25.159Z,99.90
2018-12-19T18:06:53.642Z,99.90
2018-12-19T18:09:22.115Z,99.90
2018-12-19T18:11:50.601Z,99.90
2018-12-19T18:14:19.099Z,99.90
2018-12-19T18:16:47.600Z,99.90
2018-12-19T18:19:16.061Z,99.90
2018-12-19T18:21:44.569Z,99.90
2018-12-19T18:24:13.029Z,99.90
2018-12-19T18:26:41.648Z,99.90
2018-12-19T18:29:10.112Z,99.90
2018-12-19T18:31:38.585Z,99.90
2018-12-19T18:34:07.051Z,99.90
2018-12-19T18:36:35.624Z,99.90
2018-12-19T18:39:07.811Z,99.90
2018-12-19T18:41:36.255Z,99.90
2018-12-19T18:44:04.849Z,99.90
2018-12-19T18:46:33.420Z,99.90
2018-12-19T18:49:02.228Z,99.90
2018-12-19T18:51:30.728Z,99.90
2018-12-19T18:53:59.160Z,99.90
2018-12-19T18:56:27.636Z,99.90
2018-12-19T18:58:56.133Z,99.90
2018-12-19T19:01:24.689Z,99.90
2018-12-19T19:03:53.207Z,99.90
2018-12-19T19:06:21.826Z,99.90
2018-12-19T19:08:50.532Z,99.90
2018-12-19T19:11:19.132Z,99.90
2018-12-19T19:13:47.612Z,99.90
2018-12-19T19:16:16.064Z,99.90
2018-12-19T19:18:44.528Z,99.90
2018-12-19T19:21:13.032Z,99.90
2018-12-19T19:23:41.476Z,99.90
2018-12-19T19:26:09.942Z,99.90
2018-12-19T19:28:38.437Z,99.90
2018-12-19T19:31:06.885Z,99.90
2018-12-19T19:33:35.415Z,99.90
2018-12-19T19:36:04.075Z,99.90
2018-12-19T19:38:32.615Z,99.90
2018-12-19T19:41:01.128Z,99.90
2018-12-19T19:43:29.579Z,99.90
2018-12-19T19:45:58.031Z,99.90
2018-12-19T19:48:26.464Z,99.90
2018-12-19T19:50:55.043Z,99.90
2018-12-19T19:53:23.486Z,99.90
2018-12-19T19:55:52.028Z,99.90
2018-12-19T19:58:20.598Z,99.90
2018-12-19T20:00:49.040Z,99.90
2018-12-19T20:03:17.504Z,99.90
2018-12-19T20:05:45.952Z,99.90
2018-12-19T20:08:14.380Z,99.90
2018-12-19T20:10:42.954Z,99.90
2018-12-19T20:13:11.403Z,99.90
2018-12-19T20:15:39.860Z,99.90
2018-12-19T20:18:10.689Z,99.90
2018-12-19T20:20:39.240Z,99.90
2018-12-19T20:23:07.668Z,99.90
2018-12-19T20:25:36.133Z,99.90
2018-12-19T20:28:04.546Z,99.90
2018-12-19T20:30:33.125Z,99.90
2018-12-19T20:33:01.552Z,99.90
2018-12-19T20:35:30.023Z,99.90
2018-12-19T20:37:58.447Z,99.90
2018-12-19T20:40:26.881Z,99.90
2018-12-19T20:42:55.303Z,99.90
2018-12-19T20:45:23.777Z,99.90
2018-12-19T20:47:52.247Z,99.90
2018-12-19T20:50:20.688Z,99.90
2018-12-19T20:52:49.153Z,99.20
2018-12-19T20:55:17.637Z,98.10
2018-12-19T20:57:46.132Z,97.00
2018-12-19T21:00:14.810Z,96.80
2018-12-19T21:02:43.272Z,96.80
2018-12-19T21:05:11.908Z,96.60
2018-12-19T21:07:40.372Z,96.70
2018-12-19T21:10:09.076Z,96.80
2018-12-19T21:12:37.537Z,96.60
2018-12-19T21:15:07.103Z,96.90
2018-12-19T21:17:40.955Z,96.80
2018-12-19T21:20:09.516Z,97.00
2018-12-19T21:22:37.993Z,97.20
2018-12-19T21:25:06.574Z,97.10
2018-12-19T21:27:35.038Z,97.20
2018-12-19T21:30:04.090Z,97.30
2018-12-19T21:32:32.560Z,97.60
2018-12-19T21:35:01.060Z,97.40
2018-12-19T21:37:29.588Z,97.70
2018-12-19T21:39:58.034Z,97.90
2018-12-19T21:42:26.494Z,97.90
2018-12-19T21:44:54.925Z,97.90
2018-12-19T21:47:23.442Z,97.90
2018-12-19T21:49:51.952Z,97.90
2018-12-19T21:52:20.431Z,98.00
2018-12-19T21:54:48.877Z,98.20
2018-12-19T21:57:17.344Z,98.50
2018-12-19T21:59:45.807Z,98.50
2018-12-19T22:02:14.280Z,98.50
2018-12-19T22:04:42.796Z,98.50
2018-12-19T22:07:11.295Z,98.50
2018-12-19T22:09:39.835Z,98.50
2018-12-19T22:12:08.287Z,98.50
2018-12-19T22:14:37.015Z,98.40
2018-12-19T22:17:10.795Z,98.40
2018-12-19T22:19:39.325Z,98.40
2018-12-19T22:22:07.863Z,98.40
2018-12-19T22:24:36.350Z,98.30
2018-12-19T22:27:05.003Z,98.50
2018-12-19T22:29:33.472Z,98.40
2018-12-19T22:32:02.052Z,98.40
2018-12-19T22:34:30.682Z,98.40
2018-12-19T22:36:59.143Z,98.40
2018-12-19T22:39:27.559Z,98.40
2018-12-19T22:41:56.077Z,98.40
2018-12-19T22:44:24.894Z,98.50
2018-12-19T22:46:53.480Z,98.40
2018-12-19T22:49:22.079Z,98.40
2018-12-19T22:51:50.604Z,98.40
2018-12-19T22:54:19.071Z,98.40
2018-12-19T22:56:47.515Z,98.50
2018-12-19T22:59:16.011Z,98.50
2018-12-19T23:01:49.880Z,98.70
2018-12-19T23:04:18.435Z,99.10
2018-12-19T23:06:47.091Z,99.50
2018-12-19T23:09:15.565Z,99.80
2018-12-19T23:11:44.124Z,99.90
2018-12-19T23:14:15.504Z,99.90
2018-12-19T23:16:43.913Z,99.90
2018-12-19T23:19:12.454Z,99.90
2018-12-19T23:21:41.026Z,99.90
2018-12-19T23:24:09.519Z,99.90
2018-12-19T23:26:38.093Z,99.90
2018-12-19T23:29:06.769Z,99.90
2018-12-19T23:31:35.310Z,99.90
2018-12-19T23:34:04.020Z,99.90
2018-12-19T23:36:32.535Z,99.90
2018-12-19T23:39:00.973Z,99.90
2018-12-19T23:41:30.918Z,99.90
2018-12-19T23:43:59.652Z,99.90
2018-12-19T23:46:28.084Z,99.90
2018-12-19T23:48:56.556Z,99.90
2018-12-19T23:51:25.075Z,99.90
2018-12-19T23:53:53.515Z,99.90
2018-12-19T23:56:22.027Z,99.90
2018-12-19T23:58:50.531Z,99.90
